Portada
METAR-TAF:

METAR-TAF

Aeroports :

Gibraltar, Gibraltar

latitud: 36-09N, longitud: 005-21W, altitud: 5 m

Observació

L'informe es va fer fa 34 minuts, a les 13:50 UTC
Vent 13 kt del Est/Nord-Est
Temperatura 22°C
Humitat 78%
Pressió 1021 hPa
Visibilitat 10 km o més
Escasses núvols a una alçada de 1800 ft

METAR: LXGB 271350Z 07013KT 9999 FEW018 22/18 Q1021 NOSIG RMK BLU BLU

Hora: 16:24 (14:24 UTC)

Pronòstic

L'informe es va fer fa 3 hores i 51 minuts, a les 10:33 UTC
Pronòstic vàlid del 27 a les 12 UTC al 27 a les 21 UTC
Vent 12 kt del Est
Visibilitat 10 km o més
Escasses núvols a una alçada de 1400 ft
Cel ennuvolat a una alçada de 4500 ft
Probabilitat 40% :
Temporalment
l' 27 a les 12 UTC al 27 a les 18 UTC
Vent 15 kt del Est amb ràfegues de 25 kt

TAF: LXGB 271033Z 2712/2721 09012KT 9999 FEW014 BKN045 PROB40 TEMPO 2712/2718 10015G25KT

Observacions i pronòstics meteorològics de més de 4000 aeroports (METAR i TAF).

Les estacions disponibles són els punts grocs i vermells al mapa.

Posi el ratolí al punt desitjat per veure el nom de l'estació.

Feu clic per veure les observacions i els pronòstics meteorològics.

Per canviar el mapa: feu clic els botons verds amb una creu de color negre per apropar; al botó verd amb un guió per allunyar la imatge; o en les fletxes verdes per a mapes adjacents.


METAR-TAF: